createdAt,value
2023-05-15T00:08:23.088Z,3.97
2023-05-15T00:18:24.964Z,3.63
2023-05-15T00:28:26.869Z,4.13
2023-05-15T00:38:28.762Z,3.45
2023-05-15T00:48:46.943Z,2.53
2023-05-15T00:58:50.925Z,3.40
2023-05-15T01:08:56.502Z,3.45
2023-05-15T01:19:05.958Z,4.80
2023-05-15T01:29:45.788Z,4.85
2023-05-15T01:39:51.951Z,3.42
2023-05-15T01:49:56.293Z,3.05
2023-05-15T02:00:00.139Z,4.75
2023-05-15T02:10:02.922Z,3.28
2023-05-15T02:20:08.780Z,2.95
2023-05-15T02:30:16.708Z,2.47
2023-05-15T02:40:21.961Z,2.83
2023-05-15T02:50:24.002Z,2.97
2023-05-15T03:00:29.354Z,3.15
2023-05-15T03:10:43.335Z,3.20
2023-05-15T03:20:53.228Z,3.17
2023-05-15T03:30:57.328Z,2.90
2023-05-15T03:40:59.230Z,3.00
2023-05-15T03:51:01.191Z,4.10
2023-05-15T04:01:04.388Z,2.90
2023-05-15T04:11:06.933Z,3.22
2023-05-15T04:21:08.853Z,3.50
2023-05-15T04:31:17.280Z,3.83
2023-05-15T04:41:21.245Z,3.65
2023-05-15T04:51:23.159Z,2.80
2023-05-15T05:01:46.204Z,3.15
2023-05-15T05:11:48.361Z,3.28
2023-05-15T05:21:54.731Z,3.65
2023-05-15T05:32:00.295Z,3.63
2023-05-15T05:42:02.598Z,3.65
2023-05-15T05:52:08.667Z,3.97
2023-05-15T06:02:22.888Z,4.20
2023-05-15T06:12:37.189Z,4.53
2023-05-15T06:22:39.443Z,3.63
2023-05-15T06:32:42.284Z,4.13
2023-05-15T06:42:44.949Z,4.60
2023-05-15T06:52:46.966Z,4.90
2023-05-15T07:02:52.124Z,5.75
2023-05-15T07:12:54.161Z,5.13
2023-05-15T07:22:56.932Z,5.68
2023-05-15T07:33:16.649Z,5.70
2023-05-15T07:43:24.638Z,5.82
2023-05-15T07:53:30.672Z,5.68
2023-05-15T08:03:33.253Z,6.88
2023-05-15T08:13:37.445Z,7.35
2023-05-15T08:23:44.692Z,6.47
2023-05-15T08:33:55.649Z,5.85
2023-05-15T08:43:59.252Z,7.47
2023-05-15T08:54:01.303Z,6.72
2023-05-15T09:04:05.992Z,4.00
2023-05-15T09:14:15.569Z,4.53
2023-05-15T09:24:25.681Z,5.10
2023-05-15T09:34:43.041Z,4.70
2023-05-15T09:44:46.581Z,4.75
2023-05-15T09:54:50.694Z,5.05
2023-05-15T10:04:57.338Z,4.15
2023-05-15T10:15:04.019Z,7.50
2023-05-15T10:25:34.955Z,7.88
2023-05-15T10:35:52.399Z,9.02
2023-05-15T10:45:55.962Z,9.27
2023-05-15T10:55:58.130Z,8.13
2023-05-15T11:06:10.067Z,8.68
2023-05-15T11:16:12.902Z,7.50
2023-05-15T11:26:16.056Z,7.57
2023-05-15T11:36:23.911Z,8.32
2023-05-15T11:46:33.819Z,7.85
2023-05-15T11:56:35.696Z,7.40
2023-05-15T12:06:38.787Z,8.15
2023-05-15T12:16:43.840Z,8.25
2023-05-15T12:26:46.937Z,8.43
2023-05-15T12:36:50.886Z,7.43
2023-05-15T12:46:55.882Z,5.65
2023-05-15T12:56:58.326Z,8.50
2023-05-15T13:07:02.264Z,6.90
2023-05-15T13:17:08.475Z,8.00
2023-05-15T13:27:10.442Z,8.45
2023-05-15T13:37:12.397Z,8.45
2023-05-15T13:47:14.389Z,8.02
2023-05-15T13:57:16.619Z,8.40
2023-05-15T14:07:24.504Z,7.20
2023-05-15T14:17:28.155Z,8.45
2023-05-15T14:27:32.195Z,8.13
2023-05-15T14:37:34.252Z,8.25
2023-05-15T14:47:40.662Z,7.72
2023-05-15T14:57:42.672Z,8.55
2023-05-15T15:08:02.084Z,7.93
2023-05-15T15:18:10.445Z,7.82
2023-05-15T15:28:16.805Z,7.07
2023-05-15T15:38:23.865Z,7.82
2023-05-15T15:48:28.107Z,7.75
2023-05-15T15:58:37.330Z,7.85
2023-05-15T16:08:39.321Z,6.43
2023-05-15T16:18:41.368Z,7.30
2023-05-15T16:28:43.379Z,7.35
2023-05-15T16:38:45.518Z,6.32
2023-05-15T16:49:04.658Z,6.65
2023-05-15T17:09:18.644Z,6.47
2023-05-15T17:19:28.414Z,7.15
2023-05-15T17:29:43.419Z,7.40
2023-05-15T17:39:45.465Z,6.88
2023-05-15T17:49:48.553Z,7.22
2023-05-15T17:59:50.592Z,7.30
2023-05-15T18:09:53.675Z,6.78
2023-05-15T18:19:55.716Z,5.68
2023-05-15T18:29:58.194Z,8.00
2023-05-15T18:40:00.259Z,6.57
2023-05-15T18:50:12.017Z,3.08
2023-05-15T19:00:18.893Z,2.20
2023-05-15T19:10:29.734Z,2.17
2023-05-15T19:20:38.955Z,2.67
2023-05-15T19:30:41.448Z,2.75
2023-05-15T19:40:45.887Z,1.98
2023-05-15T19:50:47.974Z,2.30
2023-05-15T20:00:53.005Z,2.55
2023-05-15T20:10:55.213Z,2.58
2023-05-15T20:21:02.312Z,3.08
2023-05-15T20:31:04.455Z,4.55
2023-05-15T20:41:23.212Z,4.50
2023-05-15T20:51:25.402Z,4.10
2023-05-15T21:01:27.397Z,4.95
2023-05-15T21:11:54.935Z,3.67
2023-05-15T21:21:56.883Z,4.15
2023-05-15T21:32:05.996Z,3.92
2023-05-15T21:42:11.184Z,3.88
2023-05-15T21:52:18.973Z,3.60
2023-05-15T22:02:21.035Z,3.00
2023-05-15T22:12:23.057Z,3.55
2023-05-15T22:22:24.931Z,3.08
2023-05-15T22:32:26.964Z,2.95
2023-05-15T22:42:29.035Z,3.25
2023-05-15T22:52:30.867Z,2.95
2023-05-15T23:02:34.911Z,3.50
2023-05-15T23:12:36.810Z,3.42
2023-05-15T23:22:39.604Z,3.42
2023-05-15T23:32:41.653Z,3.38
2023-05-15T23:42:43.547Z,4.10
2023-05-15T23:52:45.481Z,4.20
